createdAt,value
2023-10-23T00:00:30.032Z,4.50
2023-10-23T00:02:57.351Z,4.51
2023-10-23T00:05:24.904Z,4.55
2023-10-23T00:07:52.124Z,4.47
2023-10-23T00:10:19.244Z,4.52
2023-10-23T00:12:46.340Z,4.53
2023-10-23T00:15:14.269Z,4.49
2023-10-23T00:17:41.472Z,4.38
2023-10-23T00:20:09.709Z,4.36
2023-10-23T00:22:36.952Z,4.34
2023-10-23T00:25:05.152Z,4.43
2023-10-23T00:27:32.555Z,4.39
2023-10-23T00:30:01.591Z,4.32
2023-10-23T00:32:33.426Z,4.43
2023-10-23T00:35:00.864Z,4.42
2023-10-23T00:37:27.946Z,4.36
2023-10-23T00:39:55.209Z,4.49
2023-10-23T00:42:22.467Z,4.48
2023-10-23T00:44:49.867Z,4.60
2023-10-23T00:47:18.191Z,4.61
2023-10-23T00:49:46.021Z,4.72
2023-10-23T00:52:13.141Z,4.72
2023-10-23T00:54:41.183Z,4.71
2023-10-23T00:57:09.215Z,4.67
2023-10-23T00:59:36.406Z,4.65
2023-10-23T01:02:05.584Z,4.56
2023-10-23T01:04:32.709Z,4.65
2023-10-23T01:06:59.790Z,4.76
2023-10-23T01:09:27.272Z,4.68
2023-10-23T01:11:54.396Z,4.60
2023-10-23T01:14:21.479Z,4.55
2023-10-23T01:16:48.572Z,4.45
2023-10-23T01:19:15.744Z,4.56
2023-10-23T01:21:43.999Z,4.51
2023-10-23T01:24:12.766Z,4.52
2023-10-23T01:26:39.935Z,4.60
2023-10-23T01:29:07.112Z,4.60
2023-10-23T01:31:35.014Z,4.60
2023-10-23T01:34:02.168Z,4.57
2023-10-23T01:36:29.579Z,4.67
2023-10-23T01:38:56.932Z,4.76
2023-10-23T01:41:24.220Z,4.84
2023-10-23T01:43:52.022Z,4.79
2023-10-23T01:46:20.583Z,4.77
2023-10-23T01:48:47.883Z,4.83
2023-10-23T01:51:16.159Z,4.87
2023-10-23T01:53:43.177Z,4.93
2023-10-23T01:56:10.361Z,4.93
2023-10-23T01:58:37.594Z,4.91
2023-10-23T02:01:04.933Z,4.97
2023-10-23T02:03:33.351Z,5.07
2023-10-23T02:06:00.642Z,5.09
2023-10-23T02:08:27.697Z,5.08
2023-10-23T02:10:54.991Z,5.06
2023-10-23T02:13:22.114Z,5.05
2023-10-23T02:15:49.236Z,5.09
2023-10-23T02:18:17.086Z,5.13
2023-10-23T02:20:45.520Z,5.09
2023-10-23T02:23:12.880Z,5.08
2023-10-23T02:25:39.957Z,5.06
2023-10-23T02:28:07.167Z,5.09
2023-10-23T02:30:37.143Z,5.07
2023-10-23T02:33:04.269Z,5.10
2023-10-23T02:35:35.791Z,5.20
2023-10-23T02:38:04.127Z,5.21
2023-10-23T02:40:31.625Z,5.21
2023-10-23T02:42:58.787Z,5.20
2023-10-23T02:45:26.525Z,5.20
2023-10-23T02:47:54.753Z,5.21
2023-10-23T02:50:23.515Z,5.15
2023-10-23T02:52:50.583Z,5.13
2023-10-23T02:55:18.293Z,5.19
2023-10-23T02:57:46.851Z,5.19
2023-10-23T03:00:14.716Z,5.15
2023-10-23T03:02:44.784Z,5.10
2023-10-23T03:05:12.912Z,5.10
2023-10-23T03:07:40.107Z,5.17
2023-10-23T03:10:10.000Z,5.19
2023-10-23T03:12:39.917Z,5.23
2023-10-23T03:15:09.138Z,5.20
2023-10-23T03:17:36.432Z,5.20
2023-10-23T03:20:05.194Z,5.19
2023-10-23T03:22:33.851Z,5.08
2023-10-23T03:25:01.011Z,5.00
2023-10-23T03:27:31.986Z,5.05
2023-10-23T03:29:59.467Z,5.11
2023-10-23T03:32:27.941Z,5.11
2023-10-23T03:34:55.061Z,5.09
2023-10-23T03:37:22.246Z,5.05
2023-10-23T03:39:51.222Z,5.08
2023-10-23T03:42:18.491Z,5.19
2023-10-23T03:44:45.634Z,5.22
2023-10-23T03:47:12.702Z,5.22
2023-10-23T03:49:40.052Z,5.26
2023-10-23T03:52:07.359Z,5.26
2023-10-23T03:54:34.474Z,5.29
2023-10-23T03:57:01.540Z,5.43
2023-10-23T03:59:28.626Z,5.34
2023-10-23T04:01:55.694Z,5.29
2023-10-23T04:04:22.944Z,5.31
2023-10-23T04:06:50.180Z,5.31
2023-10-23T04:09:17.283Z,5.28
2023-10-23T04:11:44.498Z,5.23
2023-10-23T04:14:11.556Z,5.25
2023-10-23T04:16:40.465Z,5.18
2023-10-23T04:19:07.735Z,5.20
2023-10-23T04:21:40.392Z,5.23
2023-10-23T04:24:08.775Z,5.28
2023-10-23T04:26:38.345Z,5.09
2023-10-23T04:29:06.144Z,5.22
2023-10-23T04:31:33.233Z,5.30
2023-10-23T04:34:00.460Z,5.26
2023-10-23T04:36:27.821Z,5.37
2023-10-23T04:38:54.856Z,5.43
2023-10-23T04:41:21.971Z,5.46
2023-10-23T04:43:49.046Z,5.47
2023-10-23T04:46:16.261Z,5.42
2023-10-23T04:48:43.458Z,5.43
2023-10-23T04:51:10.617Z,5.34
2023-10-23T04:53:37.773Z,5.32
2023-10-23T04:56:07.900Z,5.31
2023-10-23T04:58:35.191Z,5.23
2023-10-23T05:01:02.472Z,5.23
2023-10-23T05:03:31.309Z,5.23
2023-10-23T05:05:58.578Z,5.29
2023-10-23T05:08:25.787Z,5.35
2023-10-23T05:10:52.805Z,5.40
2023-10-23T05:13:19.955Z,5.34
2023-10-23T05:15:48.233Z,5.29
2023-10-23T05:18:15.463Z,5.32
2023-10-23T05:20:42.589Z,5.24
2023-10-23T05:23:09.671Z,5.34
2023-10-23T05:25:37.737Z,5.43
2023-10-23T05:28:05.141Z,5.50
2023-10-23T05:30:32.656Z,5.40
2023-10-23T05:32:59.954Z,5.43
2023-10-23T05:35:27.055Z,5.51
2023-10-23T05:37:54.302Z,5.52
2023-10-23T05:40:21.390Z,5.50
2023-10-23T05:42:48.480Z,5.59
2023-10-23T05:45:15.745Z,5.62
2023-10-23T05:47:42.850Z,5.62
2023-10-23T05:50:10.225Z,5.49
2023-10-23T05:52:37.334Z,5.47
2023-10-23T05:55:05.980Z,5.52
2023-10-23T05:57:33.310Z,5.60
2023-10-23T06:00:00.637Z,5.55
2023-10-23T06:02:28.680Z,5.70
2023-10-23T06:04:55.795Z,5.77
2023-10-23T06:07:23.067Z,5.83
2023-10-23T06:09:50.256Z,5.89
2023-10-23T06:12:17.364Z,5.98
2023-10-23T06:14:44.432Z,6.02
2023-10-23T06:17:11.458Z,6.10
2023-10-23T06:19:38.656Z,6.14
2023-10-23T06:22:06.068Z,6.14
2023-10-23T06:24:33.295Z,6.16
2023-10-23T06:27:19.184Z,6.20
2023-10-23T06:29:46.368Z,6.25
2023-10-23T06:32:14.531Z,6.13
2023-10-23T06:34:41.669Z,6.18
2023-10-23T06:37:08.808Z,6.17
2023-10-23T06:39:36.911Z,6.17
2023-10-23T06:42:04.308Z,6.23
2023-10-23T06:44:31.474Z,6.25
2023-10-23T06:46:58.650Z,6.34
2023-10-23T06:49:25.717Z,6.36
2023-10-23T06:51:52.838Z,6.35
2023-10-23T06:54:22.858Z,6.28
2023-10-23T06:56:50.186Z,6.37
2023-10-23T06:59:17.352Z,6.38
2023-10-23T07:06:05.352Z,6.38
2023-10-23T07:08:41.118Z,6.54
2023-10-23T07:11:20.083Z,6.57
2023-10-23T07:13:54.722Z,6.64
2023-10-23T07:16:30.849Z,6.65
2023-10-23T07:18:58.079Z,6.67
2023-10-23T07:21:27.229Z,6.75
2023-10-23T07:23:54.470Z,6.78
2023-10-23T07:26:21.555Z,6.84
2023-10-23T07:28:49.010Z,6.83
2023-10-23T07:31:16.145Z,6.90
2023-10-23T07:33:44.022Z,7.04
2023-10-23T07:36:13.604Z,7.13
2023-10-23T07:38:43.125Z,7.19
2023-10-23T07:41:11.277Z,7.19
2023-10-23T07:43:38.465Z,7.20
2023-10-23T07:46:15.588Z,7.22
2023-10-23T07:48:46.307Z,7.21
2023-10-23T07:51:13.988Z,7.22
2023-10-23T07:53:41.580Z,7.24
2023-10-23T07:56:08.740Z,7.35
2023-10-23T07:58:35.969Z,7.37
2023-10-23T08:01:08.099Z,7.43
2023-10-23T08:03:36.531Z,7.36
2023-10-23T08:06:05.308Z,7.47
2023-10-23T08:08:35.324Z,7.48
2023-10-23T08:11:07.622Z,7.57
2023-10-23T08:13:35.535Z,7.66
2023-10-23T08:16:05.134Z,7.60
2023-10-23T08:21:16.564Z,7.69
2023-10-23T08:23:48.099Z,7.73
2023-10-23T08:26:15.607Z,7.75
2023-10-23T08:31:24.739Z,7.80
2023-10-23T08:33:57.687Z,7.83
2023-10-23T08:36:25.044Z,7.80
2023-10-23T08:38:52.200Z,7.81
2023-10-23T08:41:19.301Z,7.80
2023-10-23T08:43:46.437Z,7.80
2023-10-23T08:46:13.617Z,7.83
2023-10-23T08:48:40.785Z,7.79
2023-10-23T08:51:08.822Z,7.85
2023-10-23T08:53:49.267Z,7.84
2023-10-23T08:56:23.270Z,7.90
2023-10-23T08:58:57.682Z,7.92
2023-10-23T09:01:26.051Z,7.94
2023-10-23T09:04:03.724Z,7.96
2023-10-23T09:06:32.027Z,8.04
2023-10-23T09:08:59.585Z,8.15
2023-10-23T09:11:43.094Z,8.21
2023-10-23T09:14:10.667Z,8.00
2023-10-23T09:16:39.215Z,7.96
2023-10-23T09:19:06.566Z,7.96
2023-10-23T09:21:34.956Z,8.02
2023-10-23T09:24:04.859Z,8.07
2023-10-23T09:26:32.795Z,8.06
2023-10-23T09:28:59.858Z,8.00
2023-10-23T09:31:27.800Z,7.98
2023-10-23T09:33:55.287Z,7.96
2023-10-23T09:36:22.660Z,7.97
2023-10-23T09:39:01.698Z,7.88
2023-10-23T09:41:29.374Z,7.94
2023-10-23T09:44:02.040Z,8.06
2023-10-23T09:46:30.458Z,8.10
2023-10-23T09:49:02.159Z,8.16
2023-10-23T09:51:31.673Z,8.16
2023-10-23T09:54:00.870Z,8.18
2023-10-23T09:56:35.750Z,8.19
2023-10-23T09:59:05.827Z,8.16
2023-10-23T10:01:37.732Z,8.21
2023-10-23T10:04:22.271Z,8.26
2023-10-23T10:07:01.440Z,8.23
2023-10-23T10:09:30.249Z,8.18
2023-10-23T10:11:58.393Z,8.21
2023-10-23T10:14:26.577Z,8.29
2023-10-23T10:16:56.804Z,8.31
2023-10-23T10:19:28.142Z,8.26
2023-10-23T10:22:08.009Z,8.31
2023-10-23T10:24:37.165Z,8.30
2023-10-23T10:27:05.256Z,8.31
2023-10-23T10:29:32.562Z,8.29
2023-10-23T10:32:13.447Z,8.24
2023-10-23T10:34:47.303Z,8.29
2023-10-23T10:39:52.061Z,8.30
2023-10-23T10:42:26.629Z,8.34
2023-10-23T10:44:54.427Z,8.35
2023-10-23T10:47:22.758Z,8.35
2023-10-23T10:49:52.185Z,8.39
2023-10-23T10:52:29.889Z,8.41
2023-10-23T10:55:10.200Z,8.45
2023-10-23T10:57:43.818Z,8.46
2023-10-23T11:00:13.414Z,8.49
2023-10-23T11:02:41.742Z,8.45
2023-10-23T11:05:13.851Z,8.36
2023-10-23T11:07:41.293Z,8.37
2023-10-23T11:10:09.858Z,8.34
2023-10-23T11:12:37.356Z,8.35
2023-10-23T11:15:06.276Z,8.40
2023-10-23T11:17:34.089Z,8.45
2023-10-23T11:20:07.298Z,8.48
2023-10-23T11:22:34.470Z,8.51
2023-10-23T11:25:01.712Z,8.52
2023-10-23T11:27:31.072Z,8.52
2023-10-23T11:29:58.357Z,8.59
2023-10-23T11:32:25.507Z,8.58
2023-10-23T11:34:52.610Z,8.55
2023-10-23T11:37:20.577Z,8.56
2023-10-23T11:39:48.903Z,8.46
2023-10-23T11:42:16.935Z,8.50
2023-10-23T11:44:44.275Z,8.52
2023-10-23T11:47:11.535Z,8.50
2023-10-23T11:49:39.007Z,8.47
2023-10-23T11:52:06.663Z,8.46
2023-10-23T11:54:33.914Z,8.38
2023-10-23T11:57:01.539Z,8.34
2023-10-23T11:59:28.804Z,8.34
2023-10-23T12:01:57.911Z,8.31
2023-10-23T12:04:25.641Z,8.28
2023-10-23T12:06:53.005Z,8.24
2023-10-23T12:09:20.166Z,8.18
2023-10-23T12:11:47.343Z,8.15
2023-10-23T12:14:14.417Z,8.11
2023-10-23T12:16:42.127Z,7.97
2023-10-23T12:19:11.155Z,8.00
2023-10-23T12:21:38.618Z,7.94
2023-10-23T12:24:07.937Z,7.90
2023-10-23T12:26:35.573Z,7.90
2023-10-23T12:29:06.558Z,7.79
2023-10-23T12:32:01.342Z,7.84
2023-10-23T12:34:21.640Z,7.83
2023-10-23T12:36:49.013Z,7.87
2023-10-23T12:39:16.200Z,7.84
2023-10-23T12:41:43.378Z,7.83
2023-10-23T12:44:10.626Z,7.68
2023-10-23T12:46:37.762Z,7.69
2023-10-23T12:49:05.699Z,7.66
2023-10-23T12:51:32.991Z,7.71
2023-10-23T12:54:00.139Z,7.73
2023-10-23T12:56:28.239Z,7.77
2023-10-23T12:58:55.434Z,7.74
2023-10-23T13:01:22.629Z,7.73
2023-10-23T13:03:49.874Z,7.75
2023-10-23T13:06:18.458Z,7.76
2023-10-23T13:08:45.654Z,7.77
2023-10-23T13:11:13.012Z,7.81
2023-10-23T13:13:40.116Z,7.79
2023-10-23T13:16:07.365Z,7.79
2023-10-23T13:18:34.602Z,7.78
2023-10-23T13:21:30.154Z,7.76
2023-10-23T13:23:52.616Z,7.79
2023-10-23T13:26:20.016Z,7.78
2023-10-23T13:28:49.318Z,7.75
2023-10-23T13:31:33.808Z,7.78
2023-10-23T13:34:01.330Z,7.75
2023-10-23T13:36:31.900Z,7.81
2023-10-23T13:38:59.163Z,7.84
2023-10-23T13:41:27.337Z,7.78
2023-10-23T13:43:54.566Z,7.84
2023-10-23T13:46:21.952Z,7.84
2023-10-23T13:48:52.868Z,7.80
2023-10-23T13:51:20.027Z,7.81
2023-10-23T13:53:47.116Z,7.83
2023-10-23T13:56:14.507Z,7.88
2023-10-23T13:58:41.539Z,7.92
2023-10-23T14:01:08.705Z,7.95
2023-10-23T14:03:36.324Z,7.98
2023-10-23T14:06:03.461Z,8.04
2023-10-23T14:09:38.773Z,8.04
2023-10-23T14:11:57.637Z,8.05
2023-10-23T14:14:05.247Z,7.95
2023-10-23T14:16:32.435Z,8.00
2023-10-23T14:18:59.562Z,8.02
2023-10-23T14:21:26.742Z,8.06
2023-10-23T14:23:53.786Z,8.09
2023-10-23T14:26:20.930Z,8.04
2023-10-23T14:28:48.125Z,8.09
2023-10-23T14:31:15.697Z,8.13
2023-10-23T14:33:43.571Z,8.11
2023-10-23T14:36:16.098Z,8.14
2023-10-23T14:38:44.161Z,8.16
2023-10-23T14:41:11.339Z,8.15
2023-10-23T14:43:38.581Z,8.17
2023-10-23T14:46:06.996Z,8.13
2023-10-23T14:48:34.215Z,8.20
2023-10-23T14:51:01.655Z,8.24
2023-10-23T14:53:30.344Z,8.24
2023-10-23T14:55:57.509Z,8.23
2023-10-23T14:58:24.814Z,8.18
2023-10-23T15:00:51.958Z,8.19
2023-10-23T15:03:19.083Z,8.19
2023-10-23T15:05:46.146Z,8.18
2023-10-23T15:08:13.437Z,8.16
2023-10-23T15:10:40.474Z,8.16
2023-10-23T15:13:07.698Z,8.09
2023-10-23T15:15:34.983Z,8.05
2023-10-23T15:18:02.341Z,8.08
2023-10-23T15:20:30.989Z,8.04
2023-10-23T15:22:59.829Z,8.03
2023-10-23T15:25:27.855Z,8.01
2023-10-23T15:27:55.021Z,8.02
2023-10-23T15:30:22.133Z,8.06
2023-10-23T15:32:49.293Z,7.99
2023-10-23T15:35:16.651Z,8.04
2023-10-23T15:37:44.189Z,8.02
2023-10-23T15:40:11.773Z,8.04
2023-10-23T15:42:42.179Z,8.09
2023-10-23T15:45:09.858Z,8.06
2023-10-23T15:47:37.099Z,8.06
2023-10-23T15:50:04.701Z,8.03
2023-10-23T15:52:31.999Z,8.00
2023-10-23T15:54:59.231Z,7.97
2023-10-23T15:57:26.479Z,7.94
2023-10-23T15:59:53.720Z,7.91
2023-10-23T16:02:21.257Z,7.89
2023-10-23T16:04:48.987Z,7.88
2023-10-23T16:07:16.420Z,7.85
2023-10-23T16:09:43.709Z,7.84
2023-10-23T16:12:10.843Z,7.83
2023-10-23T16:14:53.610Z,7.82
2023-10-23T16:17:29.595Z,7.80
2023-10-23T16:19:56.708Z,7.70
2023-10-23T16:22:24.399Z,7.71
2023-10-23T16:24:51.460Z,7.74
2023-10-23T16:27:18.766Z,7.70
2023-10-23T16:29:50.674Z,7.66
2023-10-23T16:32:24.138Z,7.61
2023-10-23T16:34:54.409Z,7.59
2023-10-23T16:37:23.027Z,7.62
2023-10-23T16:39:51.278Z,7.63
2023-10-23T16:42:18.514Z,7.64
2023-10-23T16:44:55.330Z,7.63
2023-10-23T16:47:24.276Z,7.59
2023-10-23T16:49:53.805Z,7.59
2023-10-23T16:52:23.696Z,7.54
2023-10-23T16:54:53.997Z,7.52
2023-10-23T16:57:24.351Z,7.46
2023-10-23T16:59:55.340Z,7.49
2023-10-23T17:02:27.175Z,7.44
2023-10-23T17:04:55.186Z,7.47
2023-10-23T17:07:28.374Z,7.43
2023-10-23T17:09:56.926Z,7.46
2023-10-23T17:12:24.233Z,7.39
2023-10-23T17:14:52.407Z,7.32
2023-10-23T17:17:23.667Z,7.30
2023-10-23T17:19:53.240Z,7.27
2023-10-23T17:22:22.511Z,7.27
2023-10-23T17:24:50.155Z,7.24
2023-10-23T17:27:21.993Z,7.19
2023-10-23T17:29:49.278Z,7.14
2023-10-23T17:32:17.818Z,7.15
2023-10-23T17:34:48.033Z,7.12
2023-10-23T17:37:16.503Z,7.08
2023-10-23T17:39:46.981Z,7.06
2023-10-23T17:42:17.655Z,7.04
2023-10-23T17:44:47.368Z,7.05
2023-10-23T17:47:16.912Z,7.03
2023-10-23T17:49:46.009Z,7.02
2023-10-23T17:52:13.205Z,7.04
2023-10-23T17:54:41.800Z,6.96
2023-10-23T17:57:16.362Z,6.90
2023-10-23T17:59:44.779Z,6.91
2023-10-23T18:02:12.155Z,6.88
2023-10-23T18:04:47.066Z,6.87
2023-10-23T18:07:16.511Z,6.95
2023-10-23T18:09:46.533Z,6.90
2023-10-23T18:12:31.186Z,6.90
2023-10-23T18:15:06.541Z,6.89
2023-10-23T18:17:36.068Z,6.93
2023-10-23T18:20:07.142Z,6.88
2023-10-23T18:22:36.500Z,6.87
2023-10-23T18:25:04.951Z,6.89
2023-10-23T18:27:34.561Z,6.86
2023-10-23T18:30:04.729Z,6.84
2023-10-23T18:32:35.592Z,6.80
2023-10-23T18:35:04.264Z,6.81
2023-10-23T18:37:35.192Z,6.76
2023-10-23T18:40:02.399Z,6.74
2023-10-23T18:42:33.344Z,6.73
2023-10-23T18:45:01.081Z,6.70
2023-10-23T18:47:29.140Z,6.67
2023-10-23T18:49:56.457Z,6.58
2023-10-23T18:52:24.085Z,6.65
2023-10-23T18:54:51.313Z,6.69
2023-10-23T18:57:18.615Z,6.72
2023-10-23T19:02:39.199Z,6.55
2023-10-23T19:05:06.981Z,6.63
2023-10-23T19:07:34.416Z,6.65
2023-10-23T19:10:01.873Z,6.63
2023-10-23T19:12:30.811Z,6.57
2023-10-23T19:14:57.890Z,6.57
2023-10-23T19:17:39.652Z,6.53
2023-10-23T19:20:09.075Z,6.51
2023-10-23T19:22:37.284Z,6.41
2023-10-23T19:25:05.738Z,6.39
2023-10-23T19:27:33.214Z,6.33
2023-10-23T19:30:00.343Z,6.30
2023-10-23T19:32:27.794Z,6.22
2023-10-23T19:34:55.222Z,6.22
2023-10-23T19:37:24.124Z,6.19
2023-10-23T19:39:51.514Z,6.19
2023-10-23T19:42:19.317Z,6.15
2023-10-23T19:44:46.824Z,6.19
2023-10-23T19:47:16.450Z,6.18
2023-10-23T19:49:46.282Z,6.15
2023-10-23T19:52:15.377Z,6.18
2023-10-23T19:54:48.756Z,6.22
2023-10-23T19:57:17.635Z,6.16
2023-10-23T19:59:44.776Z,6.13
2023-10-23T20:02:17.980Z,6.12
2023-10-23T20:04:45.105Z,6.10
2023-10-23T20:07:12.244Z,6.10
2023-10-23T20:09:39.461Z,5.98
2023-10-23T20:12:06.852Z,5.89
2023-10-23T20:14:34.061Z,5.88
2023-10-23T20:17:01.330Z,5.84
2023-10-23T20:19:28.633Z,5.83
2023-10-23T20:21:58.329Z,5.83
2023-10-23T20:24:25.423Z,5.88
2023-10-23T20:26:52.485Z,5.83
2023-10-23T20:29:19.643Z,5.89
2023-10-23T20:31:46.968Z,5.94
2023-10-23T20:34:16.759Z,5.93
2023-10-23T20:36:43.806Z,5.92
2023-10-23T20:39:11.375Z,5.85
2023-10-23T20:41:38.466Z,5.81
2023-10-23T20:44:05.713Z,5.78
2023-10-23T20:46:32.928Z,5.84
2023-10-23T20:49:00.253Z,5.80
2023-10-23T20:51:27.439Z,5.73
2023-10-23T20:53:54.483Z,5.68
2023-10-23T20:56:21.720Z,5.63
2023-10-23T20:58:48.741Z,5.59
2023-10-23T21:01:16.311Z,5.61
2023-10-23T21:03:43.617Z,5.64
2023-10-23T21:06:10.839Z,5.63
2023-10-23T21:08:39.017Z,5.60
2023-10-23T21:11:07.448Z,5.65
2023-10-23T21:13:35.660Z,5.63
2023-10-23T21:16:03.067Z,5.63
2023-10-23T21:18:30.294Z,5.68
2023-10-23T21:20:57.461Z,5.67
2023-10-23T21:23:24.703Z,5.67
2023-10-23T21:25:51.959Z,5.68
2023-10-23T21:28:24.394Z,5.63
2023-10-23T21:30:51.587Z,5.64
2023-10-23T21:33:18.814Z,5.60
2023-10-23T21:35:45.983Z,5.62
2023-10-23T21:38:13.124Z,5.59
2023-10-23T21:40:40.325Z,5.60
2023-10-23T21:43:07.527Z,5.62
2023-10-23T21:45:34.755Z,5.61
2023-10-23T21:48:01.951Z,5.52
2023-10-23T21:50:32.184Z,5.51
2023-10-23T21:52:59.885Z,5.50
2023-10-23T21:55:27.453Z,5.49
2023-10-23T21:57:54.868Z,5.51
2023-10-23T22:00:29.027Z,5.53
2023-10-23T22:03:00.742Z,5.47
2023-10-23T22:05:29.769Z,5.49
2023-10-23T22:07:57.466Z,5.48
2023-10-23T22:10:26.686Z,5.41
2023-10-23T22:12:55.659Z,5.43
2023-10-23T22:15:23.483Z,5.43
2023-10-23T22:17:52.576Z,5.40
2023-10-23T22:20:20.198Z,5.46
2023-10-23T22:22:47.762Z,5.45
2023-10-23T22:25:15.053Z,5.49
2023-10-23T22:27:42.278Z,5.48
2023-10-23T22:30:09.686Z,5.51
2023-10-23T22:32:36.897Z,5.52
2023-10-23T22:35:07.209Z,5.49
2023-10-23T22:37:58.329Z,5.55
2023-10-23T22:40:22.259Z,5.57
2023-10-23T22:42:49.608Z,5.47
2023-10-23T22:45:16.821Z,5.49
2023-10-23T22:47:44.200Z,5.53
2023-10-23T22:50:12.129Z,5.51
2023-10-23T22:52:41.095Z,5.52
2023-10-23T22:55:09.639Z,5.54
2023-10-23T22:57:40.093Z,5.55
2023-10-23T23:00:10.512Z,5.52
2023-10-23T23:02:39.107Z,5.49
2023-10-23T23:05:07.433Z,5.51
2023-10-23T23:07:42.919Z,5.48
2023-10-23T23:10:11.021Z,5.53
2023-10-23T23:12:38.435Z,5.52
2023-10-23T23:15:06.878Z,5.51
2023-10-23T23:17:47.786Z,5.55
2023-10-23T23:20:15.607Z,5.55
2023-10-23T23:22:42.814Z,5.57
2023-10-23T23:25:10.188Z,5.62
2023-10-23T23:27:37.699Z,5.63
2023-10-23T23:30:05.563Z,5.59
2023-10-23T23:32:33.002Z,5.55
2023-10-23T23:35:00.501Z,5.50
2023-10-23T23:37:29.813Z,5.53
2023-10-23T23:39:57.213Z,5.57
2023-10-23T23:42:24.339Z,5.59
2023-10-23T23:44:51.489Z,5.60
2023-10-23T23:47:18.871Z,5.55
2023-10-23T23:49:47.028Z,5.52
2023-10-23T23:52:15.145Z,5.60
2023-10-23T23:54:42.819Z,5.60
2023-10-23T23:57:12.215Z,5.52
2023-10-23T23:59:39.674Z,5.56
